sensor_id;sensor_type;location;lat;lon;timestamp;temperature;humidity
23769;DHT22;12064;50.890;5.424;2024-03-29T00:02:50;16.20;98.90
23769;DHT22;12064;50.890;5.424;2024-03-29T00:11:40;16.20;99.00
23769;DHT22;12064;50.890;5.424;2024-03-29T00:20:32;16.20;99.10
23769;DHT22;12064;50.890;5.424;2024-03-29T00:29:23;16.20;99.30
23769;DHT22;12064;50.890;5.424;2024-03-29T00:38:14;16.20;99.40
23769;DHT22;12064;50.890;5.424;2024-03-29T00:47:05;16.10;99.60
23769;DHT22;12064;50.890;5.424;2024-03-29T00:55:59;16.10;99.80
23769;DHT22;12064;50.890;5.424;2024-03-29T01:04:50;16.10;99.90
23769;DHT22;12064;50.890;5.424;2024-03-29T01:13:41;16.10;99.90
23769;DHT22;12064;50.890;5.424;2024-03-29T01:22:31;16.10;99.90
23769;DHT22;12064;50.890;5.424;2024-03-29T01:31:23;16.10;99.90
23769;DHT22;12064;50.890;5.424;2024-03-29T01:40:13;16.10;99.90
23769;DHT22;12064;50.890;5.424;2024-03-29T01:49:05;16.10;99.90
23769;DHT22;12064;50.890;5.424;2024-03-29T01:57:56;16.00;99.90
23769;DHT22;12064;50.890;5.424;2024-03-29T02:06:48;16.00;99.90
23769;DHT22;12064;50.890;5.424;2024-03-29T02:15:39;16.00;99.90
23769;DHT22;12064;50.890;5.424;2024-03-29T02:24:30;16.00;99.90
23769;DHT22;12064;50.890;5.424;2024-03-29T02:33:22;16.00;99.90
23769;DHT22;12064;50.890;5.424;2024-03-29T02:42:13;16.00;99.90
23769;DHT22;12064;50.890;5.424;2024-03-29T02:51:04;16.00;99.90
23769;DHT22;12064;50.890;5.424;2024-03-29T02:59:54;16.00;99.90
23769;DHT22;12064;50.890;5.424;2024-03-29T03:08:45;16.00;99.90
23769;DHT22;12064;50.890;5.424;2024-03-29T03:17:54;15.90;99.90
23769;DHT22;12064;50.890;5.424;2024-03-29T03:26:45;15.90;99.90
23769;DHT22;12064;50.890;5.424;2024-03-29T03:35:36;15.90;99.90
23769;DHT22;12064;50.890;5.424;2024-03-29T03:44:26;15.90;99.90
23769;DHT22;12064;50.890;5.424;2024-03-29T03:53:19;15.90;99.90
23769;DHT22;12064;50.890;5.424;2024-03-29T04:02:09;15.90;99.90
23769;DHT22;12064;50.890;5.424;2024-03-29T04:11:04;15.90;99.90
23769;DHT22;12064;50.890;5.424;2024-03-29T04:19:55;15.80;99.90
23769;DHT22;12064;50.890;5.424;2024-03-29T04:28:45;15.80;99.90
23769;DHT22;12064;50.890;5.424;2024-03-29T04:37:36;15.80;99.90
23769;DHT22;12064;50.890;5.424;2024-03-29T04:46:29;15.80;99.90
23769;DHT22;12064;50.890;5.424;2024-03-29T04:55:20;15.80;99.90
23769;DHT22;12064;50.890;5.424;2024-03-29T05:04:11;15.80;99.90
23769;DHT22;12064;50.890;5.424;2024-03-29T05:13:01;15.70;99.90
23769;DHT22;12064;50.890;5.424;2024-03-29T05:21:52;15.70;99.90
23769;DHT22;12064;50.890;5.424;2024-03-29T05:30:43;15.70;99.90
23769;DHT22;12064;50.890;5.424;2024-03-29T05:39:34;15.80;99.90
23769;DHT22;12064;50.890;5.424;2024-03-29T05:48:24;15.70;99.90
23769;DHT22;12064;50.890;5.424;2024-03-29T05:57:15;15.70;99.90
23769;DHT22;12064;50.890;5.424;2024-03-29T06:06:06;15.70;99.90
23769;DHT22;12064;50.890;5.424;2024-03-29T06:14:57;15.60;99.90
23769;DHT22;12064;50.890;5.424;2024-03-29T06:24:11;15.50;99.90
23769;DHT22;12064;50.890;5.424;2024-03-29T06:33:05;15.60;99.90
23769;DHT22;12064;50.890;5.424;2024-03-29T06:41:58;15.60;99.90
23769;DHT22;12064;50.890;5.424;2024-03-29T06:50:48;15.70;99.90
23769;DHT22;12064;50.890;5.424;2024-03-29T06:59:40;15.60;99.90
23769;DHT22;12064;50.890;5.424;2024-03-29T07:08:31;15.60;99.90
23769;DHT22;12064;50.890;5.424;2024-03-29T07:17:21;15.60;99.90
23769;DHT22;12064;50.890;5.424;2024-03-29T07:26:12;15.60;99.90
23769;DHT22;12064;50.890;5.424;2024-03-29T07:35:06;15.60;99.90
23769;DHT22;12064;50.890;5.424;2024-03-29T07:43:58;15.60;99.90
23769;DHT22;12064;50.890;5.424;2024-03-29T07:52:53;15.60;99.90
23769;DHT22;12064;50.890;5.424;2024-03-29T08:01:44;15.60;99.90
23769;DHT22;12064;50.890;5.424;2024-03-29T08:10:35;15.60;99.90
23769;DHT22;12064;50.890;5.424;2024-03-29T08:19:25;15.70;99.90
23769;DHT22;12064;50.890;5.424;2024-03-29T08:28:16;15.70;99.90
23769;DHT22;12064;50.890;5.424;2024-03-29T08:37:07;15.80;99.90
23769;DHT22;12064;50.890;5.424;2024-03-29T08:45:58;15.90;99.90
23769;DHT22;12064;50.890;5.424;2024-03-29T08:54:49;15.90;99.90
23769;DHT22;12064;50.890;5.424;2024-03-29T09:03:39;15.90;99.90
23769;DHT22;12064;50.890;5.424;2024-03-29T09:12:30;15.90;99.90
23769;DHT22;12064;50.890;5.424;2024-03-29T09:21:21;15.90;99.90
23769;DHT22;12064;50.890;5.424;2024-03-29T09:30:12;16.00;99.90
23769;DHT22;12064;50.890;5.424;2024-03-29T09:39:03;16.00;99.90
23769;DHT22;12064;50.890;5.424;2024-03-29T09:47:57;16.00;99.90
23769;DHT22;12064;50.890;5.424;2024-03-29T09:56:49;16.00;99.90
23769;DHT22;12064;50.890;5.424;2024-03-29T10:05:40;16.00;99.90
23769;DHT22;12064;50.890;5.424;2024-03-29T10:14:31;16.10;99.90
23769;DHT22;12064;50.890;5.424;2024-03-29T10:23:22;16.10;99.90
23769;DHT22;12064;50.890;5.424;2024-03-29T10:32:15;16.20;99.60
23769;DHT22;12064;50.890;5.424;2024-03-29T10:41:06;16.30;99.30
23769;DHT22;12064;50.890;5.424;2024-03-29T10:49:58;16.30;99.10
23769;DHT22;12064;50.890;5.424;2024-03-29T10:58:51;16.30;99.10
23769;DHT22;12064;50.890;5.424;2024-03-29T11:07:46;16.30;99.10
23769;DHT22;12064;50.890;5.424;2024-03-29T11:16:39;16.40;98.90
23769;DHT22;12064;50.890;5.424;2024-03-29T11:25:42;16.40;98.70
23769;DHT22;12064;50.890;5.424;2024-03-29T11:34:33;16.50;98.60
23769;DHT22;12064;50.890;5.424;2024-03-29T11:43:24;16.50;98.50
23769;DHT22;12064;50.890;5.424;2024-03-29T11:52:18;16.50;98.40
23769;DHT22;12064;50.890;5.424;2024-03-29T12:01:08;16.60;98.30
23769;DHT22;12064;50.890;5.424;2024-03-29T12:10:05;16.60;98.20
23769;DHT22;12064;50.890;5.424;2024-03-29T12:18:58;16.70;97.90
23769;DHT22;12064;50.890;5.424;2024-03-29T12:27:49;16.80;97.80
23769;DHT22;12064;50.890;5.424;2024-03-29T12:36:40;16.80;97.70
23769;DHT22;12064;50.890;5.424;2024-03-29T12:45:31;16.80;97.60
23769;DHT22;12064;50.890;5.424;2024-03-29T12:54:22;16.90;97.40
23769;DHT22;12064;50.890;5.424;2024-03-29T13:03:15;16.90;97.30
23769;DHT22;12064;50.890;5.424;2024-03-29T13:12:06;16.90;97.20
23769;DHT22;12064;50.890;5.424;2024-03-29T13:20:57;16.90;97.20
23769;DHT22;12064;50.890;5.424;2024-03-29T13:29:49;17.00;97.10
23769;DHT22;12064;50.890;5.424;2024-03-29T13:38:40;17.00;97.00
23769;DHT22;12064;50.890;5.424;2024-03-29T13:47:35;17.00;96.90
23769;DHT22;12064;50.890;5.424;2024-03-29T13:56:26;17.10;96.80
23769;DHT22;12064;50.890;5.424;2024-03-29T14:05:17;17.10;96.80
23769;DHT22;12064;50.890;5.424;2024-03-29T14:14:08;17.10;96.70
23769;DHT22;12064;50.890;5.424;2024-03-29T14:23:00;17.10;96.60
23769;DHT22;12064;50.890;5.424;2024-03-29T14:31:56;17.20;96.60
23769;DHT22;12064;50.890;5.424;2024-03-29T14:40:47;17.20;96.50
23769;DHT22;12064;50.890;5.424;2024-03-29T14:49:38;17.20;96.50
23769;DHT22;12064;50.890;5.424;2024-03-29T14:58:29;17.20;96.40
23769;DHT22;12064;50.890;5.424;2024-03-29T15:07:19;17.20;96.40
23769;DHT22;12064;50.890;5.424;2024-03-29T15:16:10;17.30;96.30
23769;DHT22;12064;50.890;5.424;2024-03-29T15:25:01;17.30;96.20
23769;DHT22;12064;50.890;5.424;2024-03-29T15:33:52;17.30;96.20
23769;DHT22;12064;50.890;5.424;2024-03-29T15:42:43;17.30;96.10
23769;DHT22;12064;50.890;5.424;2024-03-29T15:51:34;17.30;96.10
23769;DHT22;12064;50.890;5.424;2024-03-29T16:00:24;17.40;96.10
23769;DHT22;12064;50.890;5.424;2024-03-29T16:09:17;17.40;96.00
23769;DHT22;12064;50.890;5.424;2024-03-29T16:18:11;17.40;96.00
23769;DHT22;12064;50.890;5.424;2024-03-29T16:27:02;17.40;96.00
23769;DHT22;12064;50.890;5.424;2024-03-29T16:35:53;17.40;95.90
23769;DHT22;12064;50.890;5.424;2024-03-29T16:44:44;17.50;95.80
23769;DHT22;12064;50.890;5.424;2024-03-29T16:53:34;17.50;95.80
23769;DHT22;12064;50.890;5.424;2024-03-29T17:02:25;17.40;95.80
23769;DHT22;12064;50.890;5.424;2024-03-29T17:11:16;17.40;95.70
23769;DHT22;12064;50.890;5.424;2024-03-29T17:20:07;17.40;95.70
23769;DHT22;12064;50.890;5.424;2024-03-29T17:28:59;17.50;95.80
23769;DHT22;12064;50.890;5.424;2024-03-29T17:37:50;17.40;96.30
23769;DHT22;12064;50.890;5.424;2024-03-29T17:46:40;17.40;96.50
23769;DHT22;12064;50.890;5.424;2024-03-29T17:55:31;17.40;96.90
23769;DHT22;12064;50.890;5.424;2024-03-29T18:04:22;17.40;96.90
23769;DHT22;12064;50.890;5.424;2024-03-29T18:13:13;17.40;96.70
23769;DHT22;12064;50.890;5.424;2024-03-29T18:22:07;17.30;96.70
23769;DHT22;12064;50.890;5.424;2024-03-29T18:30:57;17.30;96.80
23769;DHT22;12064;50.890;5.424;2024-03-29T18:39:51;17.20;97.20
23769;DHT22;12064;50.890;5.424;2024-03-29T18:48:42;17.20;96.90
23769;DHT22;12064;50.890;5.424;2024-03-29T18:57:33;17.20;97.00
23769;DHT22;12064;50.890;5.424;2024-03-29T19:06:23;17.20;97.10
23769;DHT22;12064;50.890;5.424;2024-03-29T19:15:17;17.20;97.20
23769;DHT22;12064;50.890;5.424;2024-03-29T19:24:07;17.20;97.30
23769;DHT22;12064;50.890;5.424;2024-03-29T19:32:59;17.10;97.30
23769;DHT22;12064;50.890;5.424;2024-03-29T19:41:50;17.10;97.30
23769;DHT22;12064;50.890;5.424;2024-03-29T19:50:41;17.10;97.30
23769;DHT22;12064;50.890;5.424;2024-03-29T19:59:31;17.10;97.30
23769;DHT22;12064;50.890;5.424;2024-03-29T20:08:23;17.10;97.40
23769;DHT22;12064;50.890;5.424;2024-03-29T20:17:14;17.00;97.50
23769;DHT22;12064;50.890;5.424;2024-03-29T20:26:08;17.00;97.50
23769;DHT22;12064;50.890;5.424;2024-03-29T20:35:02;17.00;97.60
23769;DHT22;12064;50.890;5.424;2024-03-29T20:43:53;17.00;97.70
23769;DHT22;12064;50.890;5.424;2024-03-29T20:52:44;17.00;97.80
23769;DHT22;12064;50.890;5.424;2024-03-29T21:01:35;17.00;97.90
23769;DHT22;12064;50.890;5.424;2024-03-29T21:10:44;16.90;98.00
23769;DHT22;12064;50.890;5.424;2024-03-29T21:19:35;16.90;98.00
23769;DHT22;12064;50.890;5.424;2024-03-29T21:28:26;16.90;98.20
23769;DHT22;12064;50.890;5.424;2024-03-29T21:37:18;16.90;98.30
23769;DHT22;12064;50.890;5.424;2024-03-29T21:46:09;16.80;98.30
23769;DHT22;12064;50.890;5.424;2024-03-29T21:55:00;16.80;98.40
23769;DHT22;12064;50.890;5.424;2024-03-29T22:03:50;16.80;98.50
23769;DHT22;12064;50.890;5.424;2024-03-29T22:12:41;16.80;98.60
23769;DHT22;12064;50.890;5.424;2024-03-29T22:21:33;16.70;98.60
23769;DHT22;12064;50.890;5.424;2024-03-29T22:30:24;16.70;98.70
23769;DHT22;12064;50.890;5.424;2024-03-29T22:39:14;16.70;98.90
23769;DHT22;12064;50.890;5.424;2024-03-29T22:48:08;16.70;99.00
23769;DHT22;12064;50.890;5.424;2024-03-29T22:56:59;16.70;99.10
23769;DHT22;12064;50.890;5.424;2024-03-29T23:05:49;16.60;99.30
23769;DHT22;12064;50.890;5.424;2024-03-29T23:14:40;16.60;99.90
23769;DHT22;12064;50.890;5.424;2024-03-29T23:23:31;16.60;99.90
23769;DHT22;12064;50.890;5.424;2024-03-29T23:32:21;16.60;99.90
23769;DHT22;12064;50.890;5.424;2024-03-29T23:41:12;16.60;99.90
23769;DHT22;12064;50.890;5.424;2024-03-29T23:50:03;16.60;99.90
23769;DHT22;12064;50.890;5.424;2024-03-29T23:58:57;16.50;99.90
